createdAt,value
2024-03-10T00:01:34.385Z,99.50
2024-03-10T00:04:03.785Z,99.50
2024-03-10T00:06:33.311Z,99.60
2024-03-10T00:09:02.703Z,99.60
2024-03-10T00:11:32.352Z,99.60
2024-03-10T00:14:02.274Z,99.70
2024-03-10T00:16:31.728Z,99.60
2024-03-10T00:19:01.241Z,99.70
2024-03-10T00:21:31.225Z,99.60
2024-03-10T00:24:02.490Z,99.60
2024-03-10T00:26:32.578Z,99.70
2024-03-10T00:29:02.098Z,99.70
2024-03-10T00:31:32.783Z,99.70
2024-03-10T00:34:02.266Z,99.80
2024-03-10T00:36:31.613Z,99.80
2024-03-10T00:39:01.226Z,99.80
2024-03-10T00:41:30.715Z,99.80
2024-03-10T00:44:00.420Z,99.90
2024-03-10T00:46:30.614Z,99.80
2024-03-10T00:49:00.973Z,99.70
2024-03-10T00:51:30.399Z,99.70
2024-03-10T00:53:59.684Z,99.60
2024-03-10T00:56:32.187Z,99.60
2024-03-10T00:59:01.808Z,99.50
2024-03-10T01:01:31.921Z,99.30
2024-03-10T01:04:01.378Z,99.30
2024-03-10T01:06:30.718Z,99.20
2024-03-10T01:09:01.565Z,99.20
2024-03-10T01:11:31.115Z,99.10
2024-03-10T01:14:03.081Z,99.00
2024-03-10T01:16:32.697Z,98.90
2024-03-10T01:19:02.204Z,98.80
2024-03-10T01:21:31.694Z,98.60
2024-03-10T01:24:02.570Z,98.60
2024-03-10T01:26:33.699Z,98.60
2024-03-10T01:29:03.820Z,98.50
2024-03-10T01:31:33.675Z,98.40
2024-03-10T01:34:03.380Z,98.20
2024-03-10T01:36:33.536Z,98.10
2024-03-10T01:39:03.260Z,98.10
2024-03-10T01:41:35.841Z,98.00
2024-03-10T01:44:06.359Z,97.80
2024-03-10T01:46:40.193Z,97.80
2024-03-10T01:49:10.744Z,97.80
2024-03-10T01:51:44.135Z,97.60
2024-03-10T01:54:15.970Z,97.50
2024-03-10T01:56:46.513Z,97.50
2024-03-10T01:59:16.266Z,97.50
2024-03-10T02:01:48.422Z,97.40
2024-03-10T02:04:22.469Z,97.20
2024-03-10T02:06:52.570Z,97.10
2024-03-10T02:09:23.381Z,97.10
2024-03-10T02:11:53.146Z,96.90
2024-03-10T02:14:22.756Z,96.90
2024-03-10T02:16:52.340Z,96.80
2024-03-10T02:19:21.745Z,96.70
2024-03-10T02:21:51.187Z,96.40
2024-03-10T02:24:33.880Z,96.30
2024-03-10T02:27:03.737Z,96.20
2024-03-10T02:29:51.903Z,96.30
2024-03-10T02:32:39.382Z,96.20
2024-03-10T02:35:28.061Z,96.20
2024-03-10T02:38:15.911Z,96.10
2024-03-10T02:41:04.091Z,96.10
2024-03-10T02:43:51.646Z,96.10
2024-03-10T02:46:42.224Z,96.00
2024-03-10T02:49:12.766Z,95.90
2024-03-10T02:51:45.916Z,95.70
2024-03-10T02:54:15.515Z,95.50
2024-03-10T02:56:45.081Z,95.70
2024-03-10T02:59:14.499Z,95.10
2024-03-10T03:01:43.917Z,94.90
2024-03-10T03:04:13.288Z,95.00
2024-03-10T03:06:42.888Z,94.80
2024-03-10T03:09:12.375Z,94.90
2024-03-10T03:11:42.703Z,94.90
2024-03-10T03:14:12.978Z,94.80
2024-03-10T03:16:45.382Z,94.70
2024-03-10T03:19:15.493Z,94.80
2024-03-10T03:21:48.124Z,94.80
2024-03-10T03:24:17.656Z,94.80
2024-03-10T03:26:47.058Z,94.70
2024-03-10T03:29:16.491Z,94.40
2024-03-10T03:31:45.980Z,94.40
2024-03-10T03:34:15.544Z,94.40
2024-03-10T03:36:46.131Z,94.90
2024-03-10T03:39:15.812Z,95.30
2024-03-10T03:41:45.156Z,95.20
2024-03-10T03:44:14.646Z,94.90
2024-03-10T03:46:44.266Z,94.80
2024-03-10T03:49:15.965Z,94.70
2024-03-10T03:51:46.403Z,94.60
2024-03-10T03:54:17.154Z,94.50
2024-03-10T03:56:46.589Z,94.50
2024-03-10T03:59:19.220Z,94.40
2024-03-10T04:01:48.710Z,94.40
2024-03-10T04:04:18.618Z,94.00
2024-03-10T04:06:48.276Z,93.80
2024-03-10T04:09:20.272Z,93.60
2024-03-10T04:11:49.830Z,93.30
2024-03-10T04:14:19.705Z,93.20
2024-03-10T04:16:52.077Z,92.90
2024-03-10T04:19:32.271Z,92.90
2024-03-10T04:22:05.911Z,92.80
2024-03-10T04:24:37.568Z,92.90
2024-03-10T04:27:13.015Z,92.30
2024-03-10T04:29:44.593Z,92.40
2024-03-10T04:32:14.996Z,92.20
2024-03-10T04:34:44.807Z,92.00
2024-03-10T04:37:14.698Z,91.80
2024-03-10T04:39:44.212Z,91.60
2024-03-10T04:42:14.536Z,91.40
2024-03-10T04:44:46.211Z,91.00
2024-03-10T04:47:15.700Z,90.90
2024-03-10T04:49:45.593Z,91.10
2024-03-10T04:52:15.191Z,90.70
2024-03-10T04:54:44.587Z,90.60
2024-03-10T04:57:14.158Z,90.60
2024-03-10T04:59:43.670Z,90.50
2024-03-10T05:02:13.188Z,90.00
2024-03-10T05:04:42.706Z,90.30
2024-03-10T05:07:12.429Z,89.80
2024-03-10T05:09:43.170Z,89.50
2024-03-10T05:12:14.800Z,89.30
2024-03-10T05:14:44.333Z,89.30
2024-03-10T05:17:13.938Z,89.20
2024-03-10T05:19:47.181Z,88.60
2024-03-10T05:22:19.731Z,88.50
2024-03-10T05:24:49.242Z,88.20
2024-03-10T05:27:18.612Z,88.00
2024-03-10T05:29:48.040Z,87.30
2024-03-10T05:32:18.188Z,87.60
2024-03-10T05:34:48.879Z,87.60
2024-03-10T05:37:18.370Z,88.80
2024-03-10T05:39:47.743Z,87.50
2024-03-10T05:42:17.696Z,87.00
2024-03-10T05:44:47.121Z,87.00
2024-03-10T05:47:16.458Z,87.10
2024-03-10T05:49:47.019Z,86.70
2024-03-10T05:52:18.946Z,86.30
2024-03-10T05:54:49.810Z,86.40
2024-03-10T05:57:19.637Z,86.70
2024-03-10T05:59:49.500Z,87.30
2024-03-10T06:02:19.193Z,86.80
2024-03-10T06:04:48.644Z,86.40
2024-03-10T06:07:18.127Z,85.80
2024-03-10T06:09:47.496Z,85.10
2024-03-10T06:12:16.995Z,85.10
2024-03-10T06:14:46.432Z,84.80
2024-03-10T06:17:16.033Z,84.80
2024-03-10T06:20:03.908Z,85.30
2024-03-10T06:22:51.192Z,85.50
2024-03-10T06:25:32.797Z,85.40
2024-03-10T06:28:02.197Z,85.60
2024-03-10T06:30:31.593Z,85.50
2024-03-10T06:33:01.292Z,85.00
2024-03-10T06:35:31.180Z,84.40
2024-03-10T06:38:02.441Z,84.30
2024-03-10T06:40:31.935Z,84.40
2024-03-10T06:43:02.680Z,84.10
2024-03-10T06:45:32.425Z,84.40
2024-03-10T06:48:02.064Z,84.30
2024-03-10T06:50:34.282Z,84.60
2024-03-10T06:53:05.112Z,85.20
2024-03-10T06:55:34.915Z,85.20
2024-03-10T06:58:07.744Z,84.30
2024-03-10T07:00:37.329Z,84.40
2024-03-10T07:03:07.307Z,83.90
2024-03-10T07:05:37.090Z,83.90
2024-03-10T07:08:06.913Z,83.20
2024-03-10T07:10:40.265Z,83.60
2024-03-10T07:13:13.569Z,83.50
2024-03-10T07:15:43.041Z,83.00
2024-03-10T07:18:12.506Z,82.60
2024-03-10T07:20:42.076Z,82.50
2024-03-10T07:23:11.872Z,81.30
2024-03-10T07:25:41.422Z,81.30
2024-03-10T07:28:10.746Z,81.00
2024-03-10T07:30:42.655Z,80.60
2024-03-10T07:33:12.237Z,80.60
2024-03-10T07:35:42.287Z,80.50
2024-03-10T07:38:12.130Z,80.70
2024-03-10T07:40:41.541Z,80.30
2024-03-10T07:43:11.038Z,79.90
2024-03-10T07:45:40.445Z,80.50
2024-03-10T07:48:10.317Z,80.30
2024-03-10T07:50:39.966Z,80.80
2024-03-10T07:53:09.371Z,80.70
2024-03-10T07:55:39.163Z,80.50
2024-03-10T07:58:09.047Z,80.50
2024-03-10T08:00:38.499Z,79.60
2024-03-10T08:03:08.164Z,79.60
2024-03-10T08:05:38.224Z,79.60
2024-03-10T08:08:08.113Z,79.70
2024-03-10T08:10:37.560Z,79.40
2024-03-10T08:13:07.203Z,79.10
2024-03-10T08:15:36.983Z,78.70
2024-03-10T08:18:06.877Z,79.50
2024-03-10T08:20:37.815Z,79.20
2024-03-10T08:23:08.145Z,78.70
2024-03-10T08:25:37.926Z,78.70
2024-03-10T08:28:07.940Z,78.60
2024-03-10T08:30:37.395Z,78.60
2024-03-10T08:33:08.508Z,78.30
2024-03-10T08:35:40.076Z,78.60
2024-03-10T08:38:09.568Z,79.00
2024-03-10T08:40:39.369Z,78.90
2024-03-10T08:43:09.767Z,78.90
2024-03-10T08:45:40.783Z,79.30
2024-03-10T08:48:11.402Z,79.80
2024-03-10T08:50:42.862Z,79.60
2024-03-10T08:53:12.493Z,79.10
2024-03-10T08:55:43.110Z,79.30
2024-03-10T08:58:12.472Z,79.10
2024-03-10T09:00:42.066Z,78.60
2024-03-10T09:03:14.424Z,78.70
2024-03-10T09:05:43.918Z,78.60
2024-03-10T09:08:15.873Z,78.10
2024-03-10T09:10:53.406Z,78.10
2024-03-10T09:13:28.436Z,78.20
2024-03-10T09:15:57.972Z,79.10
2024-03-10T09:18:27.964Z,78.70
2024-03-10T09:21:00.079Z,78.70
2024-03-10T09:23:30.313Z,78.10
2024-03-10T09:26:02.898Z,78.40
2024-03-10T09:28:32.601Z,78.40
2024-03-10T09:31:02.266Z,78.40
2024-03-10T09:33:31.781Z,78.60
2024-03-10T09:36:01.230Z,78.40
2024-03-10T09:38:30.715Z,78.50
2024-03-10T09:41:02.126Z,78.70
2024-03-10T09:43:33.594Z,79.30
2024-03-10T09:46:03.879Z,79.20
2024-03-10T09:48:34.772Z,79.10
2024-03-10T09:51:05.143Z,78.70
2024-03-10T09:53:34.662Z,79.00
2024-03-10T09:56:04.733Z,79.30
2024-03-10T09:58:49.704Z,79.50
2024-03-10T10:01:23.117Z,79.50
2024-03-10T10:03:54.936Z,79.60
2024-03-10T10:06:28.543Z,79.70
2024-03-10T10:08:57.956Z,79.70
2024-03-10T10:11:28.244Z,79.80
2024-03-10T10:14:17.961Z,79.80
2024-03-10T10:17:05.318Z,80.60
2024-03-10T10:19:36.590Z,80.00
2024-03-10T10:22:07.919Z,80.00
2024-03-10T10:24:38.367Z,80.30
2024-03-10T10:27:08.123Z,80.40
2024-03-10T10:29:54.594Z,80.20
2024-03-10T10:32:26.412Z,80.30
2024-03-10T10:34:58.808Z,80.30
2024-03-10T10:37:36.418Z,80.20
2024-03-10T10:40:13.391Z,80.30
2024-03-10T10:42:53.851Z,80.40
2024-03-10T10:45:31.179Z,80.50
2024-03-10T10:48:03.465Z,80.70
2024-03-10T10:50:36.647Z,80.90
2024-03-10T10:53:09.188Z,81.10
2024-03-10T10:55:42.347Z,81.40
2024-03-10T10:58:18.880Z,81.70
2024-03-10T11:01:02.037Z,82.10
2024-03-10T11:03:43.721Z,82.40
2024-03-10T11:06:36.347Z,82.60
2024-03-10T11:09:16.809Z,83.00
2024-03-10T11:11:51.056Z,83.30
2024-03-10T11:14:24.515Z,83.60
2024-03-10T11:17:18.976Z,83.80
2024-03-10T11:19:55.105Z,84.00
2024-03-10T11:22:34.144Z,84.30
2024-03-10T11:25:18.804Z,84.50
2024-03-10T11:27:49.068Z,84.80
2024-03-10T11:30:43.169Z,85.10
2024-03-10T11:33:15.815Z,85.00
2024-03-10T11:35:46.147Z,85.30
2024-03-10T11:38:20.005Z,85.50
2024-03-10T11:41:01.778Z,85.60
2024-03-10T11:43:32.020Z,85.90
2024-03-10T11:46:01.453Z,86.40
2024-03-10T11:48:34.348Z,86.80
2024-03-10T11:51:04.449Z,87.20
2024-03-10T11:53:36.813Z,87.60
2024-03-10T11:56:06.775Z,87.80
2024-03-10T11:58:39.177Z,87.90
2024-03-10T12:01:10.820Z,88.30
2024-03-10T12:03:42.982Z,88.20
2024-03-10T12:06:15.888Z,88.70
2024-03-10T12:08:47.157Z,88.70
2024-03-10T12:11:18.093Z,88.80
2024-03-10T12:13:53.802Z,89.00
2024-03-10T12:16:24.356Z,89.10
2024-03-10T12:18:53.879Z,89.40
2024-03-10T12:21:29.957Z,89.70
2024-03-10T12:24:02.772Z,89.90
2024-03-10T12:26:34.885Z,90.10
2024-03-10T12:29:06.070Z,90.00
2024-03-10T12:31:39.645Z,90.20
2024-03-10T12:34:10.088Z,90.40
2024-03-10T12:36:39.461Z,90.60
2024-03-10T12:39:13.761Z,90.70
2024-03-10T12:41:43.175Z,90.90
2024-03-10T12:44:15.612Z,90.90
2024-03-10T12:46:45.191Z,91.00
2024-03-10T12:49:17.711Z,91.10
2024-03-10T12:51:50.937Z,91.10
2024-03-10T12:54:20.318Z,91.30
2024-03-10T12:56:50.082Z,91.30
2024-03-10T12:59:19.467Z,91.40
2024-03-10T13:01:49.040Z,91.30
2024-03-10T13:04:19.198Z,91.40
2024-03-10T13:06:49.226Z,91.40
2024-03-10T13:09:18.885Z,91.40
2024-03-10T13:11:48.391Z,91.30
2024-03-10T13:14:18.112Z,91.30
2024-03-10T13:16:47.547Z,91.40
2024-03-10T13:19:19.627Z,91.40
2024-03-10T13:21:48.947Z,91.40
2024-03-10T13:24:18.351Z,91.40
2024-03-10T13:26:47.957Z,91.40
2024-03-10T13:29:19.035Z,91.40
2024-03-10T13:31:48.389Z,91.40
2024-03-10T13:34:17.826Z,91.40
2024-03-10T13:36:47.235Z,91.50
2024-03-10T13:39:17.482Z,91.40
2024-03-10T13:41:48.337Z,91.40
2024-03-10T13:44:23.635Z,91.50
2024-03-10T13:46:59.303Z,91.50
2024-03-10T13:49:29.344Z,91.50
2024-03-10T13:51:59.733Z,91.50
2024-03-10T13:54:29.223Z,91.80
2024-03-10T13:56:58.703Z,91.50
2024-03-10T13:59:28.251Z,91.50
2024-03-10T14:01:58.672Z,91.50
2024-03-10T14:04:34.038Z,91.50
2024-03-10T14:07:03.483Z,91.50
2024-03-10T14:09:33.260Z,91.50
2024-03-10T14:12:05.872Z,91.50
2024-03-10T14:14:36.547Z,91.50
2024-03-10T14:17:06.272Z,91.50
2024-03-10T14:19:39.262Z,91.50
2024-03-10T14:22:08.989Z,91.50
2024-03-10T14:24:40.982Z,91.60
2024-03-10T14:27:10.844Z,91.60
2024-03-10T14:29:41.543Z,91.50
2024-03-10T14:32:11.033Z,91.60
2024-03-10T14:34:43.303Z,91.60
2024-03-10T14:37:12.760Z,91.70
2024-03-10T14:39:42.467Z,91.70
2024-03-10T14:42:12.108Z,91.70
2024-03-10T14:44:41.576Z,91.70
2024-03-10T14:47:11.588Z,91.80
2024-03-10T14:49:41.365Z,91.90
2024-03-10T14:52:13.967Z,91.80
2024-03-10T14:54:43.878Z,91.90
2024-03-10T14:57:13.439Z,92.00
2024-03-10T14:59:45.558Z,92.00
2024-03-10T15:02:16.469Z,92.00
2024-03-10T15:04:45.949Z,92.10
2024-03-10T15:07:17.515Z,92.10
2024-03-10T15:09:47.541Z,92.10
2024-03-10T15:12:18.523Z,92.20
2024-03-10T15:14:48.711Z,92.20
2024-03-10T15:17:19.463Z,92.20
2024-03-10T15:19:48.939Z,92.30
2024-03-10T15:22:20.170Z,92.30
2024-03-10T15:24:49.788Z,92.30
2024-03-10T15:27:20.064Z,92.30
2024-03-10T15:29:52.512Z,92.40
2024-03-10T15:32:25.147Z,92.30
2024-03-10T15:34:54.608Z,92.10
2024-03-10T15:37:24.297Z,92.10
2024-03-10T15:39:53.855Z,92.10
2024-03-10T15:42:24.009Z,92.20
2024-03-10T15:44:56.552Z,92.20
2024-03-10T15:47:25.930Z,92.20
2024-03-10T15:49:56.232Z,92.30
2024-03-10T15:52:29.692Z,92.30
2024-03-10T15:54:59.553Z,92.40
2024-03-10T15:57:29.136Z,92.50
2024-03-10T15:59:58.529Z,92.60
2024-03-10T16:02:28.230Z,92.70
2024-03-10T16:04:58.145Z,92.70
2024-03-10T16:07:27.576Z,92.70
2024-03-10T16:09:57.189Z,92.90
2024-03-10T16:12:31.373Z,93.00
2024-03-10T16:15:01.068Z,93.10
2024-03-10T16:17:34.966Z,93.10
2024-03-10T16:20:05.382Z,93.10
2024-03-10T16:22:34.820Z,93.20
2024-03-10T16:25:04.450Z,93.30
2024-03-10T16:27:34.146Z,93.30
2024-03-10T16:30:03.697Z,93.30
2024-03-10T16:32:33.780Z,93.40
2024-03-10T16:35:03.218Z,93.50
2024-03-10T16:37:32.834Z,93.60
2024-03-10T16:40:03.235Z,93.60
2024-03-10T16:42:33.129Z,93.60
2024-03-10T16:45:08.640Z,93.90
2024-03-10T16:47:38.679Z,93.70
2024-03-10T16:50:11.879Z,93.80
2024-03-10T16:52:43.088Z,93.80
2024-03-10T16:55:15.729Z,93.90
2024-03-10T16:57:45.069Z,93.90
2024-03-10T17:00:17.924Z,94.00
2024-03-10T17:02:50.331Z,94.00
2024-03-10T17:05:21.953Z,94.00
2024-03-10T17:07:52.588Z,94.00
2024-03-10T17:10:22.218Z,94.10
2024-03-10T17:12:51.686Z,94.10
2024-03-10T17:15:21.440Z,94.10
2024-03-10T17:17:52.977Z,94.20
2024-03-10T17:20:23.746Z,94.20
2024-03-10T17:22:53.364Z,94.20
2024-03-10T17:25:23.012Z,94.20
2024-03-10T17:27:52.392Z,94.20
2024-03-10T17:30:21.799Z,94.20
2024-03-10T17:32:53.748Z,94.30
2024-03-10T17:35:25.826Z,94.30
2024-03-10T17:37:55.274Z,94.30
2024-03-10T17:40:29.526Z,94.30
2024-03-10T17:42:59.308Z,94.60
2024-03-10T17:45:28.794Z,94.50
2024-03-10T17:47:58.349Z,94.50
2024-03-10T17:50:28.009Z,94.70
2024-03-10T17:52:58.989Z,94.40
2024-03-10T17:55:28.461Z,94.40
2024-03-10T17:57:57.964Z,94.50
2024-03-10T18:00:28.506Z,94.50
2024-03-10T18:02:58.857Z,94.60
2024-03-10T18:05:29.031Z,94.60
2024-03-10T18:07:59.534Z,94.60
2024-03-10T18:10:29.470Z,94.70
2024-03-10T18:12:58.893Z,94.70
2024-03-10T18:15:29.309Z,94.70
2024-03-10T18:18:01.245Z,94.80
2024-03-10T18:20:30.975Z,94.80
2024-03-10T18:23:00.667Z,94.80
2024-03-10T18:25:36.486Z,94.70
2024-03-10T18:28:06.261Z,94.80
2024-03-10T18:30:35.770Z,94.80
2024-03-10T18:33:08.659Z,94.90
2024-03-10T18:35:38.390Z,94.90
2024-03-10T18:38:08.114Z,95.00
2024-03-10T18:40:37.572Z,94.90
2024-03-10T18:43:07.194Z,94.90
2024-03-10T18:45:36.667Z,94.90
2024-03-10T18:48:06.670Z,95.00
2024-03-10T18:50:36.989Z,94.90
2024-03-10T18:53:06.858Z,94.90
2024-03-10T18:55:36.218Z,94.80
2024-03-10T18:58:06.146Z,94.80
2024-03-10T19:00:36.726Z,94.70
2024-03-10T19:03:09.084Z,94.60
2024-03-10T19:05:39.077Z,94.60
2024-03-10T19:08:08.789Z,94.50
2024-03-10T19:10:38.461Z,94.40
2024-03-10T19:13:09.887Z,94.40
2024-03-10T19:15:40.663Z,94.40
2024-03-10T19:18:10.535Z,94.40
2024-03-10T19:20:41.366Z,94.20
2024-03-10T19:23:11.665Z,94.10
2024-03-10T19:25:41.041Z,94.10
2024-03-10T19:28:10.934Z,94.00
2024-03-10T19:30:40.366Z,94.00
2024-03-10T19:33:11.388Z,94.00
2024-03-10T19:35:40.827Z,94.00
2024-03-10T19:38:12.882Z,94.00
2024-03-10T19:40:42.391Z,94.00
2024-03-10T19:43:14.744Z,94.10
2024-03-10T19:45:44.377Z,94.00
2024-03-10T19:48:19.729Z,93.90
2024-03-10T19:50:53.740Z,93.80
2024-03-10T19:53:23.871Z,93.70
2024-03-10T19:55:55.759Z,93.70
2024-03-10T19:58:29.246Z,93.70
2024-03-10T20:00:58.734Z,93.70
2024-03-10T20:03:28.275Z,93.80
2024-03-10T20:05:57.681Z,93.80
2024-03-10T20:08:27.096Z,93.90
2024-03-10T20:10:57.472Z,94.00
2024-03-10T20:13:26.892Z,94.00
2024-03-10T20:15:56.745Z,94.00
2024-03-10T20:18:28.340Z,94.00
2024-03-10T20:20:57.929Z,94.10
2024-03-10T20:23:27.970Z,94.10
2024-03-10T20:25:58.862Z,94.20
2024-03-10T20:28:28.428Z,94.30
2024-03-10T20:30:58.791Z,94.30
2024-03-10T20:33:28.791Z,94.40
2024-03-10T20:35:58.300Z,94.40
2024-03-10T20:38:28.338Z,94.40
2024-03-10T20:40:59.177Z,94.50
2024-03-10T20:43:28.593Z,94.60
2024-03-10T20:46:00.121Z,94.70
2024-03-10T20:48:34.162Z,95.00
2024-03-10T20:51:03.880Z,94.80
2024-03-10T20:53:33.454Z,94.90
2024-03-10T20:56:02.985Z,94.90
2024-03-10T20:58:32.413Z,94.90
2024-03-10T21:01:01.956Z,94.90
2024-03-10T21:03:31.350Z,95.00
2024-03-10T21:06:00.714Z,95.10
2024-03-10T21:08:31.969Z,95.10
2024-03-10T21:11:01.553Z,95.20
2024-03-10T21:13:31.796Z,95.10
2024-03-10T21:16:04.997Z,95.10
2024-03-10T21:18:35.424Z,95.00
2024-03-10T21:21:07.304Z,95.00
2024-03-10T21:23:36.808Z,95.00
2024-03-10T21:26:06.671Z,95.10
2024-03-10T21:28:36.164Z,95.20
2024-03-10T21:31:05.763Z,95.20
2024-03-10T21:33:35.918Z,95.50
2024-03-10T21:36:06.698Z,95.20
2024-03-10T21:38:36.734Z,95.20
2024-03-10T21:41:07.698Z,95.30
2024-03-10T21:43:37.324Z,95.80
2024-03-10T21:46:06.980Z,95.40
2024-03-10T21:48:36.529Z,95.40
2024-03-10T21:51:08.468Z,95.50
2024-03-10T21:53:38.359Z,95.50
2024-03-10T21:56:08.678Z,95.50
2024-03-10T21:58:39.083Z,95.60
2024-03-10T22:01:08.723Z,95.70
2024-03-10T22:03:38.118Z,95.70
2024-03-10T22:06:07.804Z,95.70
2024-03-10T22:08:37.791Z,95.80
2024-03-10T22:11:08.186Z,95.80
2024-03-10T22:13:37.883Z,95.90
2024-03-10T22:16:07.974Z,95.90
2024-03-10T22:18:37.675Z,95.90
2024-03-10T22:21:07.391Z,95.90
2024-03-10T22:23:36.850Z,96.00
2024-03-10T22:26:08.436Z,96.00
2024-03-10T22:28:37.873Z,96.00
2024-03-10T22:31:07.668Z,96.10
2024-03-10T22:33:37.667Z,96.20
2024-03-10T22:36:07.886Z,96.20
2024-03-10T22:38:37.668Z,96.20
2024-03-10T22:41:07.273Z,96.30
2024-03-10T22:43:38.186Z,96.40
2024-03-10T22:46:07.837Z,96.40
2024-03-10T22:48:37.980Z,96.40
2024-03-10T22:51:08.015Z,96.40
2024-03-10T22:53:37.989Z,96.50
2024-03-10T22:56:08.245Z,96.50
2024-03-10T22:58:37.747Z,96.50
2024-03-10T23:01:13.358Z,96.50
2024-03-10T23:03:45.495Z,96.50
2024-03-10T23:06:15.184Z,96.60
2024-03-10T23:08:44.784Z,96.60
2024-03-10T23:11:14.289Z,96.60
2024-03-10T23:13:43.821Z,96.70
2024-03-10T23:16:13.602Z,97.00
2024-03-10T23:18:45.307Z,96.90
2024-03-10T23:21:15.002Z,96.90
2024-03-10T23:23:44.504Z,97.30
2024-03-10T23:26:14.596Z,97.10
2024-03-10T23:28:45.234Z,97.20
2024-03-10T23:31:14.696Z,97.20
2024-03-10T23:33:44.258Z,97.40
2024-03-10T23:36:22.077Z,97.50
2024-03-10T23:38:52.188Z,97.60
2024-03-10T23:41:22.832Z,97.70
2024-03-10T23:43:53.546Z,97.90
2024-03-10T23:46:23.718Z,98.20
2024-03-10T23:48:54.229Z,98.00
2024-03-10T23:51:23.788Z,98.10
2024-03-10T23:53:53.923Z,98.10
2024-03-10T23:56:24.078Z,98.30
2024-03-10T23:58:56.207Z,98.30
